Time;durP1;ratioP1;P1;durP2;ratioP2;P2;SDS_P1;SDS_P2;PMS_P1;PMS_P2;Temp;Humidity;BMP_temperature;BMP_pressure;BME280_temperature;BME280_humidity;BME280_pressure;Samples;Min_cycle;Max_cycle;Signal;HPM_P1;HPM_P2
2024/03/09 00:03:51;;;;;;;5.78;5.47;;;;;;;3.39;100.00;94992.38;10283677;28;20035;-84
2024/03/09 00:08:52;;;;;;;5.88;5.57;;;;;;;3.49;100.00;94995.34;10283012;28;20042;-82
2024/03/09 00:13:53;;;;;;;5.47;5.25;;;;;;;3.52;100.00;94997.53;10282496;28;20421;-76
2024/03/09 00:18:53;;;;;;;1.90;1.80;;;;;;;3.62;100.00;94996.22;10297758;28;20022;-78
2024/03/09 00:23:54;;;;;;;2.00;1.93;;;;;;;3.62;100.00;94985.59;10280931;28;20312;-76
2024/03/09 00:28:54;;;;;;;3.15;3.05;;;;;;;3.62;100.00;94981.06;10279110;28;20356;-81
2024/03/09 00:33:55;;;;;;;2.20;2.10;;;;;;;3.70;100.00;94988.75;10288209;28;20030;-79
2024/03/09 00:38:55;;;;;;;1.80;1.70;;;;;;;3.61;100.00;94990.06;10318069;28;20850;-76
2024/03/09 00:43:55;;;;;;;0.30;0.30;;;;;;;3.45;100.00;94990.66;10310952;28;20282;-79
2024/03/09 00:48:56;;;;;;;0.47;0.47;;;;;;;3.49;100.00;94978.56;10282263;28;20361;-79
2024/03/09 00:53:56;;;;;;;1.23;1.23;;;;;;;3.66;100.00;94976.94;10309944;28;20453;-77
2024/03/09 00:59:00;;;;;;;1.10;1.10;;;;;;;3.71;100.00;94978.91;10334147;28;20027;-77
2024/03/09 01:04:00;;;;;;;0.85;0.85;;;;;;;3.89;100.00;94968.25;10333987;28;20031;-78
2024/03/09 01:09:00;;;;;;;0.23;0.23;;;;;;;3.73;100.00;94964.38;10335089;28;20058;-77
2024/03/09 01:14:01;;;;;;;11.60;3.42;;;;;;;3.82;100.00;94972.84;10335793;28;20652;-78
2024/03/09 01:19:01;;;;;;;0.63;0.63;;;;;;;3.97;100.00;94974.31;10319159;28;20180;-79
2024/03/09 01:24:01;;;;;;;0.30;0.30;;;;;;;4.05;100.00;94953.50;10275099;28;1232222;-78
2024/03/09 01:29:02;;;;;;;0.20;0.20;;;;;;;4.06;100.00;94951.66;10336121;28;20034;-80
2024/03/09 01:34:05;;;;;;;0.08;0.08;;;;;;;4.15;100.00;94958.28;10319327;28;20018;-78
2024/03/09 01:39:05;;;;;;;2.17;2.08;;;;;;;4.15;100.00;94949.50;10319643;28;20497;-83
2024/03/09 01:44:06;;;;;;;1.92;1.83;;;;;;;4.15;100.00;94944.97;10335003;28;20464;-78
2024/03/09 01:49:08;;;;;;;0.85;0.85;;;;;;;4.22;100.00;94948.34;10335052;28;20528;-78
2024/03/09 01:54:19;;;;;;;0.45;0.45;;;;;;;4.30;100.00;94955.19;10302917;28;20193;-82
2024/03/09 01:59:21;;;;;;;0.20;0.20;;;;;;;4.27;100.00;94948.47;10321254;28;20535;-79
2024/03/09 02:04:23;;;;;;;0.35;0.35;;;;;;;4.38;100.00;94946.91;10302342;28;20505;-75
2024/03/09 02:09:28;;;;;;;3.75;2.72;;;;;;;4.23;100.00;94947.31;10302472;28;20497;-78
2024/03/09 02:14:29;;;;;;;0.40;0.40;;;;;;;4.34;100.00;94950.22;10302080;28;20076;-76
2024/03/09 02:19:29;;;;;;;0.30;0.30;;;;;;;4.39;100.00;94940.50;10319170;28;20080;-76
2024/03/09 02:24:34;;;;;;;0.43;0.43;;;;;;;4.16;100.00;94946.63;10317741;28;20046;-82
2024/03/09 02:29:34;;;;;;;0.80;0.80;;;;;;;4.32;100.00;94947.78;10317021;28;20838;-76
2024/03/09 02:34:35;;;;;;;0.40;0.40;;;;;;;4.15;100.00;94934.34;10333823;28;20037;-76
2024/03/09 02:39:36;;;;;;;0.60;0.60;;;;;;;4.08;100.00;94939.75;10333783;28;20276;-76
2024/03/09 02:44:40;;;;;;;0.45;0.45;;;;;;;4.06;100.00;94946.34;10333414;28;20419;-76
2024/03/09 02:49:40;;;;;;;0.70;0.70;;;;;;;4.17;100.00;94945.59;10333579;28;20034;-78
2024/03/09 02:54:40;;;;;;;0.60;0.60;;;;;;;4.24;100.00;94946.28;10333476;28;20568;-78
2024/03/09 02:59:41;;;;;;;0.50;0.50;;;;;;;4.06;100.00;94944.50;10332955;28;20026;-77
2024/03/09 03:04:41;;;;;;;0.40;0.40;;;;;;;4.23;100.00;94949.97;10316839;28;20285;-77
2024/03/09 03:09:44;;;;;;;0.40;0.40;;;;;;;4.21;100.00;94946.72;10301685;28;20026;-81
2024/03/09 03:14:45;;;;;;;0.80;0.80;;;;;;;4.39;100.00;94937.06;10316608;28;20644;-76
2024/03/09 03:19:45;;;;;;;8.77;2.25;;;;;;;4.47;100.00;94934.06;10319164;28;20034;-81
2024/03/09 03:24:46;;;;;;;0.60;0.60;;;;;;;4.58;100.00;94930.59;10317940;28;20054;-83
2024/03/09 03:29:51;;;;;;;0.50;0.50;;;;;;;4.57;100.00;94928.97;10323869;28;20036;-82
2024/03/09 03:34:51;;;;;;;0.77;0.77;;;;;;;4.52;100.00;94931.53;10309675;28;20038;-81
2024/03/09 03:39:54;;;;;;;0.45;0.45;;;;;;;4.59;100.00;94936.72;10339975;28;20044;-78
2024/03/09 03:44:54;;;;;;;0.65;0.65;;;;;;;4.65;100.00;94950.94;10323822;28;20487;-76
2024/03/09 03:49:56;;;;;;;0.20;0.20;;;;;;;4.67;100.00;94940.91;10340055;28;20036;-76
2024/03/09 03:54:56;;;;;;;0.63;0.63;;;;;;;4.65;100.00;94941.13;10338809;28;20023;-79
2024/03/09 03:59:56;;;;;;;0.70;0.70;;;;;;;4.69;100.00;94941.47;10339632;28;20038;-83
2024/03/09 04:04:56;;;;;;;0.23;0.23;;;;;;;4.52;100.00;94936.03;10324744;28;20490;-76
2024/03/09 04:09:57;;;;;;;1.37;1.33;;;;;;;4.38;100.00;94933.59;10323767;28;20348;-77
2024/03/09 04:14:58;;;;;;;0.63;0.63;;;;;;;4.59;100.00;94928.72;10299222;28;20336;-82
2024/03/09 04:19:59;;;;;;;0.52;0.52;;;;;;;4.62;100.00;94938.94;10284154;28;20273;-82
2024/03/09 04:25:03;;;;;;;0.17;0.17;;;;;;;4.59;100.00;94940.22;10297609;28;20047;-78
2024/03/09 04:30:06;;;;;;;0.30;0.25;;;;;;;4.61;100.00;94934.66;10283525;28;20717;-82
2024/03/09 04:35:06;;;;;;;0.00;0.00;;;;;;;4.66;100.00;94931.28;10281502;28;20023;-82
2024/03/09 04:40:14;;;;;;;0.00;0.00;;;;;;;4.55;100.00;94931.06;10282457;28;20023;-80
2024/03/09 04:45:22;;;;;;;1.48;1.42;;;;;;;4.70;100.00;94937.78;10281545;28;20110;-77
2024/03/09 04:50:24;;;;;;;0.68;0.65;;;;;;;4.70;100.00;94943.09;10299981;28;20410;-77
2024/03/09 04:55:28;;;;;;;1.00;1.00;;;;;;;4.59;100.00;94934.06;10338095;28;20472;-78
2024/03/09 05:00:28;;;;;;;0.32;0.32;;;;;;;4.72;100.00;94935.69;10339000;28;20026;-80
2024/03/09 05:05:31;;;;;;;1.58;1.42;;;;;;;4.50;100.00;94938.13;10341279;28;20022;-76
2024/03/09 05:10:31;;;;;;;0.30;0.30;;;;;;;4.42;100.00;94936.59;10337347;28;20018;-78
2024/03/09 05:15:32;;;;;;;2.75;2.63;;;;;;;4.50;100.00;94936.25;10321257;28;20010;-83
2024/03/09 05:20:32;;;;;;;1.50;1.50;;;;;;;4.57;100.00;94939.59;10320447;28;20405;-77
2024/03/09 05:25:33;;;;;;;1.40;1.40;;;;;;;4.69;100.00;94941.47;10307973;28;20162;-78
2024/03/09 05:30:33;;;;;;;0.30;0.27;;;;;;;4.77;100.00;94943.78;10279886;28;20048;-76
2024/03/09 05:35:34;;;;;;;0.00;0.00;;;;;;;4.75;100.00;94936.03;10281995;28;20324;-83
2024/03/09 05:40:34;;;;;;;0.00;0.00;;;;;;;4.75;100.00;94936.03;10281668;28;20027;-78
2024/03/09 05:45:35;;;;;;;0.20;0.20;;;;;;;4.99;100.00;94943.22;10294541;28;20035;-77
2024/03/09 05:50:37;;;;;;;0.70;0.70;;;;;;;5.07;100.00;94935.69;10281612;28;20552;-77
2024/03/09 05:55:37;;;;;;;0.32;0.32;;;;;;;5.16;100.00;94948.66;10334686;28;20018;-77
2024/03/09 06:00:38;;;;;;;0.10;0.10;;;;;;;5.02;100.00;94950.75;10334461;28;20038;-77
2024/03/09 06:05:39;;;;;;;0.87;0.60;;;;;;;5.03;100.00;94949.69;10335130;28;20665;-77
2024/03/09 06:10:39;;;;;;;5.43;2.50;;;;;;;4.76;100.00;94963.50;10318872;28;20288;-78
2024/03/09 06:15:41;;;;;;;0.27;0.27;;;;;;;4.60;100.00;94956.97;10317166;28;20460;-76
2024/03/09 06:20:42;;;;;;;1.38;0.70;;;;;;;4.73;100.00;94963.94;10318978;28;20347;-76
2024/03/09 06:25:42;;;;;;;0.00;0.00;;;;;;;4.81;100.00;94960.13;10333532;28;20129;-77
2024/03/09 06:30:43;;;;;;;0.10;0.10;;;;;;;4.88;100.00;94966.13;10327609;28;20037;-77
2024/03/09 06:35:43;;;;;;;0.03;0.03;;;;;;;5.11;100.00;94976.00;10291122;28;20374;-78
2024/03/09 06:40:45;;;;;;;0.00;0.00;;;;;;;5.37;100.00;94979.19;10317008;28;20029;-77
2024/03/09 06:45:47;;;;;;;0.47;0.47;;;;;;;5.51;100.00;94975.22;10298459;28;20591;-82
2024/03/09 06:50:48;;;;;;;0.00;0.00;;;;;;;5.74;100.00;94982.38;10308592;28;20019;-77
2024/03/09 06:55:48;;;;;;;1.40;1.40;;;;;;;5.77;100.00;94984.56;10333473;28;20469;-80
2024/03/09 07:00:49;;;;;;;0.70;0.70;;;;;;;5.82;100.00;94994.53;10315963;28;20378;-76
2024/03/09 07:05:49;;;;;;;0.60;0.60;;;;;;;6.02;100.00;94993.34;10325525;28;20031;-79
2024/03/09 07:10:50;;;;;;;0.65;0.65;;;;;;;6.02;100.00;94990.66;10318977;28;20316;-75
2024/03/09 07:15:52;;;;;;;0.88;0.88;;;;;;;6.08;100.00;95003.03;10285228;28;20035;-76
2024/03/09 07:20:53;;;;;;;0.50;0.50;;;;;;;6.07;100.00;94998.75;10283696;28;20026;-79
2024/03/09 07:25:53;;;;;;;0.90;0.90;;;;;;;6.14;100.00;94999.44;10298919;28;20054;-75
2024/03/09 07:30:54;;;;;;;0.75;0.75;;;;;;;6.21;100.00;94993.94;10298069;28;20608;-74
2024/03/09 07:35:56;;;;;;;2.72;2.63;;;;;;;6.33;100.00;94998.19;10300386;28;20493;-78
2024/03/09 07:40:57;;;;;;;4.15;3.95;;;;;;;6.27;100.00;95001.81;10298338;28;20553;-76
2024/03/09 07:45:59;;;;;;;6.32;5.93;;;;;;;6.41;100.00;94996.97;10281573;28;20042;-74
2024/03/09 07:51:00;;;;;;;1.65;1.65;;;;;;;6.48;100.00;94996.84;10303802;28;20026;-73
2024/03/09 07:56:02;;;;;;;1.60;1.55;;;;;;;6.56;100.00;94999.13;10321231;28;20515;-75
2024/03/09 08:01:05;;;;;;;1.27;1.27;;;;;;;6.77;100.00;95002.94;10323607;28;20030;-78
2024/03/09 08:06:10;;;;;;;12.02;2.78;;;;;;;6.79;100.00;95000.00;10339080;28;20033;-76
2024/03/09 08:11:10;;;;;;;0.63;0.63;;;;;;;6.90;100.00;94999.13;10338662;28;20022;-75
2024/03/09 08:16:11;;;;;;;1.48;1.48;;;;;;;7.15;100.00;95009.38;10323324;28;20022;-75
2024/03/09 08:21:13;;;;;;;2.57;2.47;;;;;;;7.18;100.00;95013.44;10323875;28;20026;-76
2024/03/09 08:26:13;;;;;;;1.65;1.60;;;;;;;7.28;100.00;95005.56;10325598;28;20928;-74
2024/03/09 08:31:13;;;;;;;4.77;4.37;;;;;;;7.58;100.00;95020.44;10323179;28;20129;-75
2024/03/09 08:36:14;;;;;;;2.33;2.23;;;;;;;7.99;100.00;95012.09;10326024;28;20286;-74
2024/03/09 08:41:15;;;;;;;1.75;1.65;;;;;;;8.38;100.00;95009.31;10337449;28;20278;-74
2024/03/09 08:46:17;;;;;;;0.47;0.00;;;;;;;8.75;100.00;94997.94;10322399;28;20077;-73
2024/03/09 08:51:20;;;;;;;5.18;0.43;;;;;;;8.63;100.00;94999.97;10321069;28;20030;-81
2024/03/09 08:56:20;;;;;;;0.38;0.00;;;;;;;8.43;100.00;94995.16;10320551;28;20022;-75
2024/03/09 09:01:20;;;;;;;2.50;0.77;;;;;;;8.91;100.00;94995.38;10336948;28;20053;-75
2024/03/09 09:06:23;;;;;;;1.20;1.20;;;;;;;9.31;100.00;95000.22;10336527;28;20811;-75
2024/03/09 09:11:26;;;;;;;0.55;0.55;;;;;;;10.01;100.00;94983.94;10295348;28;20298;-75
2024/03/09 09:16:26;;;;;;;2.72;1.60;;;;;;;10.70;100.00;94976.59;10295826;28;20122;-76
2024/03/09 09:21:27;;;;;;;0.10;0.00;;;;;;;11.26;100.00;94977.63;10280687;28;20039;-81
2024/03/09 09:26:28;;;;;;;0.00;0.00;;;;;;;12.52;96.01;94975.06;10278027;28;20312;-75
2024/03/09 09:31:29;;;;;;;0.13;0.00;;;;;;;12.43;84.26;94977.53;10263509;28;20037;-78
2024/03/09 09:36:29;;;;;;;0.10;0.00;;;;;;;12.10;88.49;94969.88;10295534;28;20031;-79
2024/03/09 09:41:30;;;;;;;0.00;0.00;;;;;;;12.39;81.44;94971.91;10279584;28;20042;-75
2024/03/09 09:46:33;;;;;;;0.57;0.57;;;;;;;13.10;83.66;94969.78;10295103;28;20035;-73
2024/03/09 09:51:36;;;;;;;0.57;0.00;;;;;;;14.06;70.54;94962.84;10306229;28;20372;-78
2024/03/09 09:56:36;;;;;;;1.55;1.17;;;;;;;13.19;74.77;94969.97;10334305;28;20540;-79
2024/03/09 10:01:37;;;;;;;1.55;1.27;;;;;;;12.90;81.73;94965.34;10317882;28;20096;-80
2024/03/09 10:06:37;;;;;;;0.37;0.37;;;;;;;13.54;77.46;94964.56;10317763;28;20481;-74
2024/03/09 10:11:37;;;;;;;0.13;0.13;;;;;;;14.58;67.66;94957.59;10317329;28;20383;-76
2024/03/09 10:16:39;;;;;;;0.73;0.73;;;;;;;14.40;67.08;94956.50;10333888;28;20034;-75
2024/03/09 10:21:40;;;;;;;0.25;0.00;;;;;;;15.30;62.35;94947.53;10318570;28;20072;-75
2024/03/09 10:26:44;;;;;;;0.00;0.00;;;;;;;15.57;57.14;94949.47;10316029;28;20500;-75
2024/03/09 10:31:45;;;;;;;0.10;0.10;;;;;;;14.92;60.14;94932.19;10332877;28;20157;-76
2024/03/09 10:36:45;;;;;;;0.15;0.00;;;;;;;16.42;55.41;94926.66;10333069;28;20371;-72
2024/03/09 10:41:49;;;;;;;1.23;0.00;;;;;;;17.72;47.32;94924.03;10318751;28;20034;-75
2024/03/09 10:46:53;;;;;;;0.17;0.00;;;;;;;19.80;41.43;94911.91;10333099;28;20110;-77
2024/03/09 10:51:56;;;;;;;1.45;1.00;;;;;;;21.33;38.49;94898.13;10316705;28;20041;-74
2024/03/09 10:56:58;;;;;;;0.00;0.00;;;;;;;22.17;38.98;94892.31;10316510;28;20085;-75
2024/03/09 11:02:02;;;;;;;0.00;0.00;;;;;;;22.61;37.02;94883.47;10299820;28;20180;-75
2024/03/09 11:07:02;;;;;;;0.00;0.00;;;;;;;22.64;35.32;94879.22;10317750;28;20118;-75
2024/03/09 11:12:04;;;;;;;0.00;0.00;;;;;;;23.11;34.90;94864.88;10333234;28;20594;-74
2024/03/09 11:17:05;;;;;;;0.00;0.00;;;;;;;21.60;36.64;94871.31;10333113;28;20118;-82
2024/03/09 11:22:07;;;;;;;1.45;0.00;;;;;;;19.55;40.77;94865.31;10318364;28;20037;-76
2024/03/09 11:27:08;;;;;;;0.00;0.00;;;;;;;17.81;43.48;94872.41;10331964;28;20046;-76
2024/03/09 11:32:11;;;;;;;0.00;0.00;;;;;;;16.79;48.87;94865.03;10317688;28;20075;-75
2024/03/09 11:37:13;;;;;;;0.13;0.13;;;;;;;15.01;52.58;94864.66;10332213;28;20034;-75
2024/03/09 11:42:17;;;;;;;1.20;1.13;;;;;;;14.19;57.86;94858.63;10332143;28;20026;-74
2024/03/09 11:47:17;;;;;;;0.00;0.00;;;;;;;13.20;70.74;94858.25;10318673;28;20097;-78
2024/03/09 11:52:21;;;;;;;0.00;0.00;;;;;;;13.32;78.32;94842.41;10322473;28;20361;-75
2024/03/09 11:57:25;;;;;;;0.00;0.00;;;;;;;13.38;74.39;94834.31;10323856;28;20073;-75
2024/03/09 12:02:26;;;;;;;0.00;0.00;;;;;;;13.11;75.10;94822.97;10323582;28;20044;-79
2024/03/09 12:07:27;;;;;;;0.00;0.00;;;;;;;13.34;74.93;94818.66;10345845;28;20408;-75
2024/03/09 12:12:27;;;;;;;0.00;0.00;;;;;;;13.12;81.47;94821.88;10340923;28;20128;-75
2024/03/09 12:17:28;;;;;;;0.00;0.00;;;;;;;13.08;84.24;94804.66;10340013;28;20034;-76
2024/03/09 12:22:28;;;;;;;0.00;0.00;;;;;;;12.95;85.19;94797.25;10307621;28;20042;-78
2024/03/09 12:27:29;;;;;;;0.00;0.00;;;;;;;13.06;86.33;94804.16;10338260;28;20078;-77
2024/03/09 12:32:29;;;;;;;0.00;0.00;;;;;;;13.16;87.28;94787.03;10322896;28;20038;-76
2024/03/09 12:37:30;;;;;;;0.00;0.00;;;;;;;13.01;84.73;94795.31;10322869;28;20093;-75
2024/03/09 12:42:33;;;;;;;0.00;0.00;;;;;;;13.40;84.45;94791.66;10338496;28;20037;-77
2024/03/09 12:47:33;;;;;;;0.00;0.00;;;;;;;13.49;86.03;94784.47;10337215;28;20255;-73
2024/03/09 12:52:34;;;;;;;0.00;0.00;;;;;;;13.40;85.78;94778.94;10320676;28;20109;-74
2024/03/09 12:57:34;;;;;;;0.00;0.00;;;;;;;13.15;82.77;94788.91;10320649;28;20088;-76
2024/03/09 13:02:34;;;;;;;0.53;0.10;;;;;;;12.99;83.87;94785.59;10335360;28;20026;-75
2024/03/09 13:07:39;;;;;;;0.00;0.00;;;;;;;12.89;82.91;94780.31;10302968;28;20410;-77
2024/03/09 13:12:41;;;;;;;1.35;0.22;;;;;;;12.93;84.21;94777.84;10270616;28;20314;-75
2024/03/09 13:17:43;;;;;;;0.00;0.00;;;;;;;13.07;86.05;94775.25;10279345;28;20029;-80
2024/03/09 13:22:45;;;;;;;0.00;0.00;;;;;;;12.96;84.54;94780.78;10271242;28;20034;-74
2024/03/09 13:27:45;;;;;;;0.00;0.00;;;;;;;12.89;96.07;94768.72;10269653;28;20047;-76
2024/03/09 13:32:46;;;;;;;5.03;4.63;;;;;;;12.69;90.21;94770.53;10269253;28;20023;-74
2024/03/09 13:37:47;;;;;;;0.00;0.00;;;;;;;12.66;90.49;94765.72;10270164;28;20735;-75
2024/03/09 13:42:51;;;;;;;1.85;1.75;;;;;;;12.69;90.27;94762.44;10284758;28;20023;-77
2024/03/09 13:47:53;;;;;;;0.00;0.00;;;;;;;12.92;89.73;94746.56;10270874;28;20715;-74
2024/03/09 13:52:53;;;;;;;0.00;0.00;;;;;;;12.73;88.69;94741.91;10271809;28;20425;-75
2024/03/09 13:57:54;;;;;;;1.17;0.20;;;;;;;12.51;92.84;94747.81;10270529;28;20029;-81
2024/03/09 14:02:59;;;;;;;0.10;0.10;;;;;;;12.39;91.77;94744.69;10268785;28;20022;-79
2024/03/09 14:07:59;;;;;;;1.08;1.08;;;;;;;12.55;91.33;94748.06;10265779;28;20049;-74
2024/03/09 14:13:00;;;;;;;0.00;0.00;;;;;;;12.57;92.17;94743.16;10269037;28;20027;-75
2024/03/09 14:18:02;;;;;;;0.00;0.00;;;;;;;12.57;90.75;94740.47;10236161;28;20353;-75
2024/03/09 14:23:03;;;;;;;0.00;0.00;;;;;;;12.63;89.78;94742.81;10265930;28;20031;-77
2024/03/09 14:28:05;;;;;;;1.38;1.35;;;;;;;12.84;86.61;94734.53;10260220;28;20042;-74
2024/03/09 14:33:12;;;;;;;0.00;0.00;;;;;;;12.81;85.22;94744.00;10267855;28;20038;-76
2024/03/09 14:38:12;;;;;;;0.15;0.15;;;;;;;12.92;85.96;94736.59;10283295;28;20027;-76
2024/03/09 14:43:13;;;;;;;0.32;0.08;;;;;;;13.00;83.45;94737.84;10265664;28;20030;-75
2024/03/09 14:48:15;;;;;;;0.10;0.00;;;;;;;12.74;84.74;94732.75;10267083;28;20026;-76
2024/03/09 14:53:17;;;;;;;0.03;0.00;;;;;;;12.41;88.79;94734.44;10271135;28;20034;-76
2024/03/09 14:58:18;;;;;;;0.52;0.00;;;;;;;12.49;90.64;94733.81;10267060;28;20042;-77
2024/03/09 15:08:22;;;;;;;0.15;0.00;;;;;;;11.81;96.63;94735.44;10266600;28;20322;-75
2024/03/09 15:13:30;;;;;;;6.47;0.10;;;;;;;11.67;97.75;94737.16;10267034;28;20027;-76
2024/03/09 15:18:31;;;;;;;3.17;0.45;;;;;;;11.61;99.32;94731.00;10251593;28;20035;-80
2024/03/09 15:23:31;;;;;;;0.00;0.00;;;;;;;11.38;100.00;94727.91;10270294;28;20057;-76
2024/03/09 15:28:32;;;;;;;0.00;0.00;;;;;;;11.27;100.00;94726.34;10274695;28;20043;-76
2024/03/09 15:33:36;;;;;;;0.00;0.00;;;;;;;11.22;100.00;94739.81;10276931;28;20449;-80
2024/03/09 15:38:40;;;;;;;3.10;0.55;;;;;;;11.05;100.00;94742.88;10275876;28;20026;-75
2024/03/09 15:43:47;;;;;;;0.32;0.30;;;;;;;10.73;100.00;94741.38;10276231;28;20084;-75
2024/03/09 15:48:48;;;;;;;0.13;0.00;;;;;;;10.57;100.00;94754.06;10261130;28;20089;-80
2024/03/09 15:53:50;;;;;;;0.00;0.00;;;;;;;10.42;100.00;94752.19;10277001;28;20635;-76
2024/03/09 15:58:51;;;;;;;0.00;0.00;;;;;;;10.29;100.00;94752.75;10272580;28;20026;-75
2024/03/09 16:03:52;;;;;;;7.97;0.52;;;;;;;10.23;100.00;94751.94;10275248;28;20045;-74
2024/03/09 16:08:53;;;;;;;0.00;0.00;;;;;;;10.15;100.00;94755.97;10274081;28;20125;-74
2024/03/09 16:13:54;;;;;;;0.25;0.00;;;;;;;9.90;100.00;94760.25;10317590;23;20050;-76
2024/03/09 16:18:54;;;;;;;0.00;0.00;;;;;;;9.80;100.00;94756.78;10363767;28;20080;-76
2024/03/09 16:23:55;;;;;;;3.63;0.30;;;;;;;9.75;100.00;94754.88;10354632;28;20091;-75
2024/03/09 16:28:56;;;;;;;0.00;0.00;;;;;;;9.70;100.00;94750.31;10359768;28;20087;-79
2024/03/09 16:33:56;;;;;;;0.00;0.00;;;;;;;9.62;100.00;94758.88;10356182;28;20068;-76
2024/03/09 16:38:56;;;;;;;0.00;0.00;;;;;;;9.42;100.00;94765.03;10347508;28;20434;-75
2024/03/09 16:43:57;;;;;;;0.53;0.10;;;;;;;8.95;100.00;94769.44;10363008;28;20408;-78
2024/03/09 16:48:57;;;;;;;0.10;0.10;;;;;;;8.78;100.00;94766.94;10363552;28;20284;-74
2024/03/09 16:53:58;;;;;;;0.15;0.10;;;;;;;8.70;100.00;94768.25;10368321;28;20476;-76
2024/03/09 16:58:58;;;;;;;0.63;0.47;;;;;;;8.77;100.00;94769.91;10356161;28;20411;-75
2024/03/09 17:04:01;;;;;;;0.00;0.00;;;;;;;8.74;100.00;94778.47;10378631;28;20060;-76
2024/03/09 17:09:09;;;;;;;0.00;0.00;;;;;;;8.68;100.00;94781.09;10380510;28;20025;-75
2024/03/09 17:14:09;;;;;;;0.00;0.00;;;;;;;8.65;100.00;94788.84;10358319;28;20049;-76
2024/03/09 17:19:11;;;;;;;0.30;0.13;;;;;;;8.31;100.00;94799.84;10362938;28;20480;-76
2024/03/09 17:24:11;;;;;;;0.20;0.00;;;;;;;8.29;100.00;94791.25;10348650;28;20292;-75
2024/03/09 17:29:12;;;;;;;0.63;0.63;;;;;;;8.00;100.00;94795.06;10364035;28;20030;-76
2024/03/09 17:34:14;;;;;;;0.00;0.00;;;;;;;7.86;100.00;94804.59;10375988;28;20013;-78
2024/03/09 17:39:14;;;;;;;0.47;0.47;;;;;;;7.81;100.00;94804.53;10353331;28;20319;-74
2024/03/09 17:44:15;;;;;;;1.33;0.20;;;;;;;7.57;100.00;94812.84;10359591;28;20412;-75
2024/03/09 17:49:15;;;;;;;0.00;0.00;;;;;;;7.40;100.00;94820.97;10360472;28;20480;-77
2024/03/09 17:54:16;;;;;;;3.50;2.47;;;;;;;7.27;100.00;94811.50;10369112;28;20411;-73
2024/03/09 17:59:16;;;;;;;0.00;0.00;;;;;;;7.15;100.00;94806.25;10358950;28;20117;-81
2024/03/09 18:04:16;;;;;;;0.22;0.00;;;;;;;6.97;100.00;94819.94;10352491;28;20287;-75
2024/03/09 18:09:23;;;;;;;8.43;5.23;;;;;;;6.86;100.00;94827.00;10359209;28;20037;-75
2024/03/09 18:14:24;;;;;;;0.98;0.00;;;;;;;6.81;100.00;94822.41;10360715;28;20383;-77
2024/03/09 18:19:24;;;;;;;5.25;4.95;;;;;;;6.75;100.00;94828.72;10353204;28;20047;-79
2024/03/09 18:24:24;;;;;;;2.58;2.47;;;;;;;6.64;100.00;94841.16;10373388;28;20021;-77
2024/03/09 18:29:25;;;;;;;9.57;9.03;;;;;;;6.58;100.00;94844.78;10375625;28;20059;-78
2024/03/09 18:34:31;;;;;;;9.63;9.02;;;;;;;6.42;100.00;94834.94;10349930;28;20308;-78
2024/03/09 18:39:35;;;;;;;1.77;1.67;;;;;;;6.33;100.00;94846.03;10348038;28;20063;-74
2024/03/09 18:44:35;;;;;;;0.85;0.85;;;;;;;6.15;100.00;94852.44;10369260;28;20034;-75
2024/03/09 18:49:37;;;;;;;3.27;3.13;;;;;;;5.94;100.00;94837.09;10349155;28;20030;-73
2024/03/09 18:54:37;;;;;;;2.55;2.45;;;;;;;5.82;100.00;94837.19;10387890;28;20381;-76
2024/03/09 18:59:39;;;;;;;1.10;1.10;;;;;;;5.89;100.00;94840.50;10374446;28;20143;-74
2024/03/09 19:04:41;;;;;;;1.35;0.95;;;;;;;5.75;100.00;94836.50;10362773;28;20283;-77
2024/03/09 19:09:41;;;;;;;0.00;0.00;;;;;;;5.65;100.00;94834.47;10363349;28;20107;-76
2024/03/09 19:14:46;;;;;;;0.20;0.20;;;;;;;5.39;100.00;94849.19;10370318;28;20108;-76
2024/03/09 19:19:47;;;;;;;4.88;2.10;;;;;;;5.34;100.00;94849.88;10364065;28;20029;-78
2024/03/09 19:24:48;;;;;;;0.50;0.50;;;;;;;5.33;100.00;94855.47;10385874;28;20112;-75
2024/03/09 19:29:48;;;;;;;0.35;0.35;;;;;;;5.26;100.00;94859.09;10365173;28;20038;-74
2024/03/09 19:34:49;;;;;;;0.30;0.30;;;;;;;5.22;100.00;94868.59;10364955;28;20152;-76
2024/03/09 19:39:50;;;;;;;0.00;0.00;;;;;;;5.25;100.00;94872.66;10367144;28;20032;-76
2024/03/09 19:44:50;;;;;;;0.30;0.30;;;;;;;5.27;100.00;94876.69;10359275;28;20457;-76
2024/03/09 19:49:50;;;;;;;0.00;0.00;;;;;;;5.21;100.00;94872.28;10362906;28;20176;-76
2024/03/09 19:54:51;;;;;;;0.00;0.00;;;;;;;5.21;100.00;94882.94;10384979;28;20128;-75
2024/03/09 19:59:52;;;;;;;0.13;0.07;;;;;;;5.20;100.00;94884.00;10363732;28;20033;-75
2024/03/09 20:04:53;;;;;;;0.20;0.20;;;;;;;5.26;100.00;94887.56;10368257;28;20285;-78
2024/03/09 20:09:53;;;;;;;0.00;0.00;;;;;;;5.07;100.00;94884.25;10355097;28;20096;-76
2024/03/09 20:14:54;;;;;;;0.00;0.00;;;;;;;5.06;100.00;94877.31;10367313;28;20065;-77
2024/03/09 20:19:56;;;;;;;0.00;0.00;;;;;;;5.06;100.00;94888.75;10369748;28;20133;-75
2024/03/09 20:24:57;;;;;;;0.00;0.00;;;;;;;4.91;100.00;94896.44;10375513;28;20496;-77
2024/03/09 20:29:57;;;;;;;0.00;0.00;;;;;;;4.81;100.00;94913.00;10354975;28;20116;-77
2024/03/09 20:34:57;;;;;;;0.30;0.30;;;;;;;4.69;100.00;94910.34;10362773;28;20488;-76
2024/03/09 20:39:58;;;;;;;0.00;0.00;;;;;;;4.83;100.00;94923.41;10362957;28;20044;-80
2024/03/09 20:44:58;;;;;;;0.22;0.22;;;;;;;4.89;100.00;94912.66;10366952;28;20648;-78
2024/03/09 20:49:59;;;;;;;0.10;0.10;;;;;;;4.91;100.00;94915.06;10359003;28;20034;-82
2024/03/09 20:55:00;;;;;;;0.00;0.00;;;;;;;4.97;100.00;94916.81;10365675;28;20017;-74
2024/03/09 21:00:09;;;;;;;0.52;0.52;;;;;;;4.97;100.00;94906.97;10378577;28;20033;-76
2024/03/09 21:05:12;;;;;;;0.00;0.00;;;;;;;5.10;100.00;94894.44;10375810;28;20048;-77
2024/03/09 21:10:13;;;;;;;0.00;0.00;;;;;;;5.19;100.00;94900.22;10372616;28;20018;-76
2024/03/09 21:15:13;;;;;;;0.00;0.00;;;;;;;5.01;100.00;94898.50;10354999;28;20037;-76
2024/03/09 21:20:14;;;;;;;0.00;0.00;;;;;;;5.03;100.00;94899.09;10356261;28;20029;-75
2024/03/09 21:25:14;;;;;;;0.00;0.00;;;;;;;5.25;100.00;94897.41;10354194;28;20403;-75
2024/03/09 21:30:15;;;;;;;0.05;0.05;;;;;;;5.37;100.00;94904.56;10360530;28;20032;-74
2024/03/09 21:35:16;;;;;;;0.00;0.00;;;;;;;5.26;100.00;94909.72;10375603;28;20151;-76
2024/03/09 21:40:20;;;;;;;0.00;0.00;;;;;;;5.35;100.00;94901.34;10357676;28;20025;-77
2024/03/09 21:45:20;;;;;;;0.00;0.00;;;;;;;5.55;100.00;94906.25;10364408;28;20412;-81
2024/03/09 21:50:22;;;;;;;0.00;0.00;;;;;;;5.43;100.00;94914.31;10376433;28;20034;-79
2024/03/09 21:55:23;;;;;;;2.78;2.55;;;;;;;5.55;100.00;94904.41;10356675;28;20021;-76
2024/03/09 22:00:25;;;;;;;0.30;0.30;;;;;;;5.63;100.00;94896.03;10367803;28;20025;-77
2024/03/09 22:05:26;;;;;;;6.43;5.78;;;;;;;5.64;100.00;94918.19;10356894;28;20026;-77
2024/03/09 22:10:26;;;;;;;0.85;0.85;;;;;;;5.69;100.00;94920.13;10353752;28;20341;-75
2024/03/09 22:15:27;;;;;;;0.70;0.70;;;;;;;5.73;100.00;94910.59;10353758;28;20080;-76
2024/03/09 22:20:27;;;;;;;0.67;0.67;;;;;;;5.79;100.00;94906.97;10350481;28;20033;-76
2024/03/09 22:25:28;;;;;;;0.10;0.10;;;;;;;5.81;100.00;94913.69;10351674;28;20284;-79
2024/03/09 22:30:28;;;;;;;0.00;0.00;;;;;;;5.79;100.00;94922.97;10354373;28;20042;-80
2024/03/09 22:35:28;;;;;;;0.30;0.30;;;;;;;5.82;100.00;94926.00;10376296;28;20030;-76
2024/03/09 22:40:31;;;;;;;1.10;1.10;;;;;;;5.84;100.00;94923.06;10354763;28;20017;-76
2024/03/09 22:45:31;;;;;;;0.20;0.20;;;;;;;5.78;100.00;94926.72;10345268;28;20280;-80
2024/03/09 22:50:32;;;;;;;0.00;0.00;;;;;;;5.95;100.00;94914.22;10363644;28;20018;-81
2024/03/09 22:55:32;;;;;;;0.00;0.00;;;;;;;5.83;100.00;94918.78;10353006;28;20253;-75
2024/03/09 23:05:33;;;;;;;0.10;0.10;;;;;;;5.94;100.00;94914.44;10376148;28;20062;-75
2024/03/09 23:10:34;;;;;;;5.57;0.63;;;;;;;5.89;100.00;94909.00;10346694;28;20041;-78
2024/03/09 23:15:35;;;;;;;0.00;0.00;;;;;;;5.79;100.00;94898.97;10360316;28;20393;-74
2024/03/09 23:20:35;;;;;;;0.00;0.00;;;;;;;5.69;100.00;94906.78;10357368;28;20022;-84
2024/03/09 23:25:37;;;;;;;0.00;0.00;;;;;;;5.86;100.00;94910.34;10346371;28;20036;-73
2024/03/09 23:30:38;;;;;;;0.10;0.10;;;;;;;5.88;100.00;94897.56;10354230;28;20295;-76